createdAt,value
2023-11-19T07:40:57.132Z,2.92
2023-11-19T07:43:24.483Z,2.81
2023-11-19T07:45:51.202Z,2.82
2023-11-19T07:48:19.183Z,2.81
2023-11-19T07:50:45.953Z,2.99
2023-11-19T07:53:13.755Z,3.04
2023-11-19T07:55:42.660Z,3.07
2023-11-19T07:58:09.648Z,2.96
2023-11-19T08:00:36.225Z,2.77
2023-11-19T08:03:03.165Z,2.91
2023-11-19T08:05:30.028Z,2.85
2023-11-19T08:07:56.775Z,2.79
2023-11-19T08:10:23.732Z,3.00
2023-11-19T08:12:50.460Z,2.90
2023-11-19T08:15:32.064Z,2.86
2023-11-19T08:17:59.234Z,2.85
2023-11-19T08:20:25.914Z,2.96
2023-11-19T08:22:52.557Z,2.99
2023-11-19T08:25:19.217Z,2.97
2023-11-19T08:27:45.848Z,2.94
2023-11-19T08:30:12.973Z,3.11
2023-11-19T08:32:39.834Z,3.14
2023-11-19T08:35:07.091Z,3.12
2023-11-19T08:37:34.229Z,3.08
2023-11-19T08:40:02.131Z,3.40
2023-11-19T08:42:28.801Z,3.17
2023-11-19T08:44:55.779Z,3.15
2023-11-19T08:47:23.935Z,3.30
2023-11-19T08:52:24.152Z,3.24
2023-11-19T08:54:50.913Z,3.24
2023-11-19T08:57:17.783Z,3.32
2023-11-19T08:59:46.788Z,3.33
2023-11-19T09:02:13.570Z,3.56
2023-11-19T09:04:40.302Z,3.59
2023-11-19T09:07:07.038Z,3.57
2023-11-19T09:09:38.236Z,3.55
2023-11-19T09:12:05.191Z,3.45
2023-11-19T09:14:32.755Z,3.52
2023-11-19T09:16:59.776Z,3.62
2023-11-19T09:19:27.446Z,3.57
2023-11-19T09:21:54.708Z,3.61
2023-11-19T09:24:21.412Z,3.72
2023-11-19T09:26:48.113Z,3.83
2023-11-19T09:29:15.717Z,3.87
2023-11-19T09:31:42.416Z,3.94
2023-11-19T09:34:09.292Z,4.21
2023-11-19T09:36:35.975Z,4.17
2023-11-19T09:39:03.276Z,4.50
2023-11-19T09:41:31.689Z,4.48
2023-11-19T09:43:58.352Z,4.61
2023-11-19T09:46:27.303Z,4.64
2023-11-19T09:48:56.018Z,4.66
2023-11-19T09:51:25.797Z,4.65
2023-11-19T09:53:52.629Z,4.77
2023-11-19T09:56:19.701Z,4.86
2023-11-19T09:58:46.406Z,5.02
2023-11-19T10:03:45.163Z,5.25
2023-11-19T10:06:12.186Z,5.44
2023-11-19T10:08:42.568Z,5.35
2023-11-19T10:11:11.677Z,5.49
2023-11-19T10:13:43.768Z,5.50
2023-11-19T10:16:13.175Z,5.35
2023-11-19T10:18:47.095Z,5.47
2023-11-19T10:21:18.415Z,5.63
2023-11-19T10:23:53.226Z,5.75
2023-11-19T10:26:21.088Z,5.70
2023-11-19T10:28:49.125Z,5.95
2023-11-19T10:31:17.232Z,5.96
2023-11-19T10:33:47.935Z,6.05
2023-11-19T10:36:15.846Z,6.19
2023-11-19T10:38:53.160Z,6.19
2023-11-19T10:41:30.009Z,6.17
2023-11-19T10:43:56.874Z,6.16
2023-11-19T10:46:24.498Z,6.06
2023-11-19T10:48:51.333Z,6.00
2023-11-19T10:51:24.435Z,5.92
2023-11-19T10:53:54.110Z,5.96
2023-11-19T10:56:25.933Z,5.93
2023-11-19T10:58:55.357Z,6.08
2023-11-19T11:01:25.958Z,6.22
2023-11-19T11:03:55.558Z,6.11
2023-11-19T11:06:23.589Z,6.09
2023-11-19T11:08:50.283Z,6.17
2023-11-19T11:11:18.634Z,6.09
2023-11-19T11:13:46.836Z,6.16
2023-11-19T11:16:14.837Z,6.10
2023-11-19T11:18:41.614Z,6.26
2023-11-19T11:21:13.897Z,6.34
2023-11-19T11:24:02.568Z,6.54
2023-11-19T11:26:48.307Z,6.36
2023-11-19T11:29:27.530Z,6.47
2023-11-19T11:32:26.215Z,6.59
2023-11-19T11:34:58.872Z,6.71
2023-11-19T11:37:35.967Z,6.60
2023-11-19T11:40:11.530Z,6.52
2023-11-19T11:42:38.842Z,6.56
2023-11-19T11:45:11.309Z,6.86
2023-11-19T11:47:44.123Z,7.05
2023-11-19T11:50:14.900Z,7.34
2023-11-19T11:53:00.132Z,7.40
2023-11-19T11:55:38.052Z,7.43
2023-11-19T11:58:06.910Z,7.61
2023-11-19T12:00:38.857Z,7.64
2023-11-19T12:03:26.567Z,7.84
2023-11-19T12:05:53.354Z,7.70
2023-11-19T12:08:26.574Z,7.79
2023-11-19T12:10:55.677Z,8.00
2023-11-19T12:13:25.486Z,8.02
2023-11-19T12:15:58.357Z,8.21
2023-11-19T12:18:27.849Z,8.13
2023-11-19T12:20:57.695Z,8.20
2023-11-19T12:23:25.035Z,8.47
2023-11-19T12:25:51.759Z,8.37
2023-11-19T12:28:18.850Z,8.49
2023-11-19T12:30:46.228Z,8.72
2023-11-19T12:33:14.063Z,8.74
2023-11-19T12:35:44.730Z,8.87
2023-11-19T12:38:26.731Z,9.21
2023-11-19T12:41:06.659Z,9.22
2023-11-19T12:43:51.129Z,9.22
2023-11-19T12:46:21.468Z,9.54
2023-11-19T12:48:52.608Z,9.63
2023-11-19T12:51:19.402Z,9.76
2023-11-19T12:53:51.131Z,9.82
2023-11-19T12:56:17.874Z,9.62
2023-11-19T12:58:44.522Z,9.73
2023-11-19T13:01:16.208Z,9.87
2023-11-19T13:03:42.994Z,9.95
2023-11-19T13:06:12.438Z,9.98
2023-11-19T13:08:46.832Z,9.91
2023-11-19T13:11:14.589Z,10.00
2023-11-19T13:14:16.840Z,9.87
2023-11-19T13:16:43.985Z,9.77
2023-11-19T13:19:11.213Z,9.84
2023-11-19T13:21:39.127Z,9.71
2023-11-19T13:24:06.902Z,10.05
2023-11-19T13:26:33.424Z,10.15
2023-11-19T13:29:00.351Z,10.88
2023-11-19T13:31:27.531Z,11.38
2023-11-19T13:33:54.319Z,11.54
2023-11-19T13:36:21.166Z,11.86
2023-11-19T13:38:48.151Z,11.96
2023-11-19T13:41:15.156Z,11.60
2023-11-19T13:43:41.864Z,11.52
2023-11-19T13:46:11.381Z,11.20
2023-11-19T13:48:38.885Z,11.52
2023-11-19T13:51:06.636Z,11.51
2023-11-19T13:53:51.616Z,11.43
2023-11-19T13:56:18.924Z,11.49
2023-11-19T13:58:45.541Z,11.54
2023-11-19T14:03:40.983Z,11.69
2023-11-19T14:06:09.507Z,11.47
2023-11-19T14:08:36.381Z,11.48
2023-11-19T14:11:03.259Z,11.75
2023-11-19T14:13:30.122Z,11.78
2023-11-19T14:15:57.041Z,12.05
2023-11-19T14:18:24.155Z,12.40
2023-11-19T14:20:50.761Z,12.27
2023-11-19T14:23:17.479Z,12.29
2023-11-19T14:25:44.589Z,12.49
2023-11-19T14:28:11.303Z,12.43
2023-11-19T14:30:38.204Z,12.48
2023-11-19T14:33:06.146Z,12.48
2023-11-19T14:35:34.855Z,12.22
2023-11-19T14:38:06.428Z,12.10
2023-11-19T14:43:03.230Z,11.68
2023-11-19T14:45:36.204Z,11.71
2023-11-19T14:48:08.418Z,11.57
2023-11-19T14:50:38.062Z,11.53
2023-11-19T14:53:04.957Z,11.37
2023-11-19T14:55:34.983Z,11.24
2023-11-19T14:58:07.593Z,11.31
2023-11-19T15:00:36.531Z,11.13
2023-11-19T15:03:03.383Z,10.90
2023-11-19T15:05:30.662Z,10.98
2023-11-19T15:07:57.360Z,10.64
2023-11-19T15:10:25.927Z,10.43
2023-11-19T15:12:54.573Z,10.36
2023-11-19T15:18:08.828Z,10.20
2023-11-19T15:20:35.571Z,9.97
2023-11-19T15:23:02.375Z,9.97
2023-11-19T15:25:29.071Z,10.03
2023-11-19T15:30:37.945Z,9.49
2023-11-19T15:33:04.622Z,9.43
2023-11-19T15:35:31.316Z,9.32
2023-11-19T15:38:01.085Z,9.15
2023-11-19T15:41:48.915Z,9.03
2023-11-19T15:44:41.178Z,9.02
2023-11-19T15:48:03.855Z,8.80
2023-11-19T15:50:30.544Z,8.91
2023-11-19T15:53:00.394Z,8.75
2023-11-19T15:55:27.186Z,8.59
2023-11-19T15:57:53.828Z,8.50
2023-11-19T16:00:22.781Z,8.29
2023-11-19T16:02:57.737Z,8.18
2023-11-19T16:05:27.242Z,8.29
2023-11-19T16:07:53.878Z,8.11
2023-11-19T16:10:25.721Z,8.27
2023-11-19T16:12:53.289Z,8.36
2023-11-19T16:17:51.146Z,8.55
2023-11-19T16:20:17.928Z,8.79
2023-11-19T16:22:44.803Z,8.57
2023-11-19T16:25:13.542Z,8.80
2023-11-19T16:27:43.731Z,9.16
2023-11-19T16:30:11.016Z,8.94
2023-11-19T16:32:53.048Z,8.86
2023-11-19T16:35:19.845Z,8.91
2023-11-19T16:37:49.415Z,8.62
2023-11-19T16:40:16.695Z,8.59
2023-11-19T16:42:43.397Z,8.65
2023-11-19T16:45:10.559Z,8.63
2023-11-19T16:47:37.394Z,8.49
2023-11-19T16:50:04.777Z,8.50
2023-11-19T16:52:34.579Z,8.42
2023-11-19T16:55:02.615Z,8.32
2023-11-19T16:57:29.267Z,8.08
2023-11-19T16:59:57.577Z,7.99
2023-11-19T17:02:27.436Z,7.94
2023-11-19T17:04:54.204Z,7.91
2023-11-19T17:07:20.913Z,7.98
2023-11-19T17:09:47.873Z,7.80
2023-11-19T17:12:14.615Z,7.93
2023-11-19T17:14:41.384Z,8.03
2023-11-19T17:17:08.203Z,7.89
2023-11-19T17:19:34.914Z,7.77
2023-11-19T17:22:01.557Z,7.88
2023-11-19T17:24:28.183Z,7.76
2023-11-19T17:26:54.936Z,7.65
2023-11-19T17:29:22.913Z,7.50
2023-11-19T17:31:49.612Z,7.51
2023-11-19T17:34:16.333Z,7.34
2023-11-19T17:36:43.086Z,7.38
2023-11-19T17:39:09.848Z,7.26
2023-11-19T17:41:36.549Z,7.31
2023-11-19T17:44:03.284Z,8.07
2023-11-19T17:46:29.916Z,8.37
2023-11-19T17:48:56.668Z,8.27
2023-11-19T17:51:24.078Z,8.37
2023-11-19T17:53:51.257Z,8.38
2023-11-19T17:56:18.672Z,8.30
2023-11-19T17:58:45.501Z,8.32
2023-11-19T18:01:12.386Z,8.64
2023-11-19T18:03:39.374Z,8.33
2023-11-19T18:06:06.887Z,8.35
2023-11-19T18:08:33.623Z,8.20
2023-11-19T18:11:00.413Z,8.07
2023-11-19T18:13:27.038Z,7.97
2023-11-19T18:15:54.746Z,8.04
2023-11-19T18:18:22.577Z,7.93
2023-11-19T18:20:49.569Z,8.16
2023-11-19T18:23:16.485Z,7.89
2023-11-19T18:25:43.186Z,8.11
2023-11-19T18:28:09.871Z,8.21
2023-11-19T18:30:39.041Z,8.36
2023-11-19T18:33:05.786Z,8.06
2023-11-19T18:35:56.932Z,7.99
2023-11-19T18:41:09.113Z,8.02
2023-11-19T18:43:35.863Z,8.37
2023-11-19T18:46:12.037Z,8.51
2023-11-19T18:49:38.223Z,8.76
2023-11-19T18:52:08.317Z,8.76
2023-11-19T18:54:36.410Z,8.78
2023-11-19T18:57:06.292Z,8.73
2023-11-19T18:59:58.150Z,8.84
2023-11-19T19:02:27.063Z,8.84
2023-11-19T19:04:54.174Z,8.62
2023-11-19T19:07:31.137Z,8.99
2023-11-19T19:09:58.812Z,8.92
2023-11-19T19:12:25.471Z,9.00
2023-11-19T19:14:53.075Z,8.90
2023-11-19T19:17:20.396Z,8.93
2023-11-19T19:19:47.534Z,8.74
2023-11-19T19:22:14.234Z,8.43
2023-11-19T19:24:41.008Z,8.38
2023-11-19T19:27:08.943Z,8.29
2023-11-19T19:29:35.680Z,8.21
2023-11-19T19:32:02.345Z,8.00
2023-11-19T19:34:30.823Z,7.99
2023-11-19T19:36:58.564Z,8.04
2023-11-19T19:39:25.663Z,7.94
2023-11-19T19:41:52.316Z,7.93
2023-11-19T19:44:20.750Z,8.41
2023-11-19T19:46:48.200Z,8.80
2023-11-19T19:49:15.016Z,8.84
2023-11-19T19:51:41.959Z,8.87
2023-11-19T19:54:08.730Z,9.04
2023-11-19T19:56:36.126Z,9.05
2023-11-19T19:59:02.807Z,9.00
2023-11-19T20:01:29.462Z,9.08
2023-11-19T20:03:56.223Z,8.85
2023-11-19T20:06:25.567Z,8.96
2023-11-19T20:08:52.875Z,8.87
2023-11-19T20:11:19.707Z,8.64
2023-11-19T20:13:46.373Z,8.69
2023-11-19T20:16:13.394Z,8.62
2023-11-19T20:18:40.210Z,8.69
2023-11-19T20:21:09.736Z,8.66
2023-11-19T20:23:36.582Z,8.53
2023-11-19T20:26:03.435Z,8.48
2023-11-19T20:28:30.336Z,8.38
2023-11-19T20:30:57.047Z,8.43
2023-11-19T20:33:25.955Z,8.28
2023-11-19T20:35:52.572Z,8.32
2023-11-19T20:38:19.248Z,8.20
2023-11-19T20:40:45.930Z,8.24
2023-11-19T20:43:12.597Z,8.14
2023-11-19T20:45:39.941Z,8.07
2023-11-19T20:48:06.958Z,8.07
2023-11-19T20:50:35.149Z,8.14
2023-11-19T20:53:01.926Z,8.20
2023-11-19T20:55:29.722Z,8.22
2023-11-19T20:57:58.129Z,8.02
2023-11-19T21:00:25.621Z,8.01
2023-11-19T21:02:55.066Z,7.99
2023-11-19T21:05:21.865Z,7.80
2023-11-19T21:07:49.488Z,7.81
2023-11-19T21:10:16.262Z,7.92
2023-11-19T21:12:43.075Z,7.93
2023-11-19T21:15:10.281Z,8.01
2023-11-19T21:17:36.973Z,7.94
2023-11-19T21:20:04.498Z,7.77
2023-11-19T21:22:31.359Z,7.81
2023-11-19T21:24:58.081Z,8.11
2023-11-19T21:27:24.954Z,8.05
2023-11-19T21:29:51.693Z,7.86
2023-11-19T21:32:18.432Z,7.85
2023-11-19T21:34:45.368Z,7.91
2023-11-19T21:37:12.081Z,7.92
2023-11-19T21:39:38.864Z,7.75
2023-11-19T21:42:06.128Z,7.74
2023-11-19T21:44:32.806Z,7.78
2023-11-19T21:46:59.860Z,7.91
2023-11-19T21:49:26.694Z,8.05
2023-11-19T21:51:53.430Z,7.96
2023-11-19T21:54:20.103Z,7.88
2023-11-19T21:56:46.996Z,7.98
2023-11-19T21:59:13.807Z,7.95
2023-11-19T22:01:40.634Z,7.88
2023-11-19T22:04:07.543Z,7.61
2023-11-19T22:06:34.455Z,7.52
2023-11-19T22:09:01.522Z,7.32
2023-11-19T22:11:29.225Z,7.21
2023-11-19T22:13:56.360Z,7.00
2023-11-19T22:16:23.298Z,6.87
2023-11-19T22:18:50.643Z,6.87
2023-11-19T22:21:17.457Z,6.86
2023-11-19T22:23:44.445Z,6.97
2023-11-19T22:26:11.321Z,6.90
2023-11-19T22:28:40.404Z,6.89
2023-11-19T22:31:07.565Z,6.73
2023-11-19T22:33:34.344Z,6.87
2023-11-19T22:36:01.143Z,6.72
2023-11-19T22:38:28.067Z,6.88
2023-11-19T22:40:55.269Z,6.73
2023-11-19T22:43:22.068Z,6.76
2023-11-19T22:45:49.180Z,6.81
2023-11-19T22:48:15.983Z,6.85
2023-11-19T22:50:43.090Z,6.84
2023-11-19T22:53:09.752Z,6.77
2023-11-19T22:55:36.731Z,6.65
2023-11-19T22:58:04.478Z,6.69
2023-11-19T23:00:31.733Z,6.65
2023-11-19T23:02:59.851Z,6.67
2023-11-19T23:05:31.154Z,6.70
2023-11-19T23:07:58.766Z,6.48
2023-11-19T23:10:25.528Z,6.61
2023-11-19T23:12:52.650Z,6.58
2023-11-19T23:15:20.042Z,6.58
2023-11-19T23:17:46.992Z,6.51
2023-11-19T23:20:17.421Z,6.42
2023-11-19T23:22:44.777Z,6.54
2023-11-19T23:25:12.036Z,6.57
2023-11-19T23:27:38.941Z,6.56
2023-11-19T23:30:06.163Z,6.61
2023-11-19T23:32:32.856Z,6.50
2023-11-19T23:34:59.523Z,6.74
2023-11-19T23:37:26.289Z,6.77
2023-11-19T23:39:53.806Z,6.61
2023-11-19T23:42:21.433Z,6.88
2023-11-19T23:44:48.562Z,6.85
2023-11-19T23:47:15.233Z,6.85
2023-11-19T23:49:42.337Z,6.83
2023-11-19T23:52:10.583Z,6.72
2023-11-19T23:54:37.672Z,6.73
2023-11-19T23:57:05.108Z,6.73
2023-11-19T23:59:32.297Z,6.68
